Time;durP1;ratioP1;P1;durP2;ratioP2;P2;SDS_P1;SDS_P2;PMS_P1;PMS_P2;Temp;Humidity;BMP_temperature;BMP_pressure;BME280_temperature;BME280_humidity;BME280_pressure;Samples;Min_cycle;Max_cycle;Signal;HPM_P1;HPM_P2
2023/04/25 00:01:35;;;;;;;11.23;6.17;;;;;;;5.93;82.97;100440.47;5114059;28;20220;-66
2023/04/25 00:04:02;;;;;;;7.13;6.43;;;;;;;5.93;83.20;100437.81;5114056;28;20182;-65
2023/04/25 00:06:29;;;;;;;16.60;7.57;;;;;;;5.92;83.55;100447.59;5113412;28;20209;-66
2023/04/25 00:08:56;;;;;;;7.37;6.57;;;;;;;5.89;83.81;100439.81;5113479;28;20606;-65
2023/04/25 00:11:23;;;;;;;7.73;6.77;;;;;;;5.94;83.74;100442.22;5113483;28;20213;-65
2023/04/25 00:13:54;;;;;;;10.07;6.10;;;;;;;5.92;83.84;100452.06;5116389;28;20185;-65
2023/04/25 00:16:20;;;;;;;6.50;5.90;;;;;;;5.92;84.37;100446.75;5117483;28;20318;-66
2023/04/25 00:18:51;;;;;;;5.87;5.40;;;;;;;5.94;84.14;100447.56;5099208;28;20197;-66
2023/04/25 00:21:19;;;;;;;6.87;6.37;;;;;;;5.92;84.30;100446.75;5118044;28;20253;-65
2023/04/25 00:23:46;;;;;;;7.20;6.50;;;;;;;5.93;84.45;100451.94;5117359;28;20216;-65
2023/04/25 00:26:13;;;;;;;7.03;5.87;;;;;;;5.97;84.33;100447.38;5117274;28;20254;-65
2023/04/25 00:28:40;;;;;;;6.10;5.73;;;;;;;5.95;84.31;100451.91;5117220;28;20268;-65
2023/04/25 00:31:07;;;;;;;11.40;6.87;;;;;;;5.96;84.38;100449.19;5098979;28;20201;-65
2023/04/25 00:33:33;;;;;;;10.70;6.83;;;;;;;5.93;84.50;100457.25;5117451;28;20706;-65
2023/04/25 00:36:00;;;;;;;6.23;5.93;;;;;;;6.01;84.60;100453.34;5098692;28;20585;-65
2023/04/25 00:38:26;;;;;;;6.70;6.00;;;;;;;6.01;84.89;100451.56;5117852;28;20624;-65
2023/04/25 00:40:53;;;;;;;6.57;6.17;;;;;;;6.04;85.00;100442.56;5117044;28;20208;-65
2023/04/25 00:43:20;;;;;;;6.70;6.07;;;;;;;6.01;84.88;100448.03;5117570;28;20216;-65
2023/04/25 00:45:48;;;;;;;10.07;6.33;;;;;;;6.00;85.20;100451.66;5116883;28;20225;-65
2023/04/25 00:48:14;;;;;;;10.13;5.53;;;;;;;5.97;85.23;100453.53;5098633;28;20225;-65
2023/04/25 00:50:42;;;;;;;15.40;5.80;;;;;;;6.00;85.46;100444.53;5098603;28;20250;-65
2023/04/25 00:53:09;;;;;;;7.87;6.23;;;;;;;5.97;85.57;100450.03;5116816;28;20216;-65
2023/04/25 00:55:36;;;;;;;6.57;6.00;;;;;;;5.95;85.75;100450.09;5116601;28;20254;-65
2023/04/25 00:58:02;;;;;;;7.83;5.73;;;;;;;5.97;86.23;100458.84;5116734;28;20245;-65
2023/04/25 01:00:29;;;;;;;9.50;6.17;;;;;;;5.97;85.62;100458.00;5117235;28;20260;-65
2023/04/25 01:02:56;;;;;;;7.07;6.50;;;;;;;5.98;85.83;100459.69;5117170;28;20185;-65
2023/04/25 01:05:23;;;;;;;9.90;6.03;;;;;;;5.93;86.14;100459.91;5116529;28;20201;-65
2023/04/25 01:07:50;;;;;;;17.03;6.83;;;;;;;5.94;86.27;100452.88;5116521;28;20181;-65
2023/04/25 01:10:16;;;;;;;9.57;6.83;;;;;;;5.97;85.69;100465.97;5117019;28;20181;-65
2023/04/25 01:12:43;;;;;;;8.00;7.27;;;;;;;5.91;85.84;100461.84;5116792;28;20219;-65
2023/04/25 01:15:10;;;;;;;8.27;7.10;;;;;;;5.91;86.02;100463.63;5116268;28;20293;-65
2023/04/25 01:17:36;;;;;;;9.63;6.83;;;;;;;5.92;85.98;100460.03;5116321;28;20230;-65
2023/04/25 01:20:04;;;;;;;6.73;6.33;;;;;;;5.81;86.17;100455.31;5116606;28;20189;-65
2023/04/25 01:22:32;;;;;;;10.13;6.47;;;;;;;5.87;86.36;100459.44;5097993;28;20220;-65
2023/04/25 01:24:59;;;;;;;8.60;6.97;;;;;;;5.86;86.24;100452.41;5096987;28;20209;-66
2023/04/25 01:27:27;;;;;;;12.20;7.77;;;;;;;5.84;86.49;100455.16;5097907;28;20283;-66
2023/04/25 01:29:55;;;;;;;9.13;6.93;;;;;;;5.86;86.54;100452.41;5097783;28;20193;-66
2023/04/25 01:32:23;;;;;;;11.00;6.63;;;;;;;5.84;87.08;100457.81;5097808;28;20565;-66
2023/04/25 01:34:50;;;;;;;18.77;7.00;;;;;;;5.85;86.73;100463.97;5097600;28;20225;-66
2023/04/25 01:37:18;;;;;;;9.93;7.33;;;;;;;5.88;86.65;100469.97;5097664;28;20200;-66
2023/04/25 01:39:45;;;;;;;8.80;7.00;;;;;;;5.91;86.37;100468.94;5097587;28;20288;-66
2023/04/25 01:42:12;;;;;;;12.60;7.13;;;;;;;5.86;86.84;100474.50;5115932;28;20186;-66
2023/04/25 01:44:39;;;;;;;10.73;7.63;;;;;;;5.84;86.60;100473.75;5116031;28;20682;-67
2023/04/25 01:47:05;;;;;;;7.80;6.87;;;;;;;5.82;86.73;100483.63;5115748;28;20219;-66
2023/04/25 01:49:32;;;;;;;12.37;6.93;;;;;;;5.80;86.74;100471.34;5115754;28;20193;-66
2023/04/25 01:51:58;;;;;;;13.00;7.97;;;;;;;5.73;87.03;100482.31;5097426;28;20197;-65
2023/04/25 01:54:25;;;;;;;7.83;7.17;;;;;;;5.75;87.17;100474.28;5098122;28;20217;-65
2023/04/25 01:56:52;;;;;;;9.37;7.03;;;;;;;5.74;87.14;100477.84;5097294;28;20213;-66
2023/04/25 01:59:21;;;;;;;8.60;6.50;;;;;;;5.82;87.01;100472.97;5097259;28;20655;-66
2023/04/25 02:01:59;;;;;;;9.83;7.40;;;;;;;5.85;86.84;100482.59;5097257;28;20189;-66
2023/04/25 02:04:30;;;;;;;9.97;7.90;;;;;;;5.82;86.82;100488.03;5097262;28;20617;-65
2023/04/25 02:06:57;;;;;;;15.40;8.00;;;;;;;5.79;87.18;100491.72;5097081;28;20193;-66
2023/04/25 02:09:31;;;;;;;21.00;8.20;;;;;;;5.79;87.41;100498.84;5097344;28;20196;-66
2023/04/25 02:11:58;;;;;;;10.70;7.63;;;;;;;5.80;87.20;100493.47;5097023;28;20678;-66
2023/04/25 02:14:34;;;;;;;7.50;6.90;;;;;;;5.81;87.54;100510.25;5096939;28;20213;-67
2023/04/25 02:17:16;;;;;;;10.23;7.70;;;;;;;5.80;87.55;100501.44;5096982;28;20191;-66
2023/04/25 02:19:44;;;;;;;9.80;7.67;;;;;;;5.76;87.88;100516.69;5096853;28;20192;-65
2023/04/25 02:22:11;;;;;;;16.47;7.97;;;;;;;5.79;87.76;100515.66;5115090;28;20174;-65
2023/04/25 02:24:38;;;;;;;10.37;7.77;;;;;;;5.78;87.66;100513.09;5096684;28;20185;-65
2023/04/25 02:27:05;;;;;;;10.13;8.07;;;;;;;5.79;87.91;100514.81;5097156;28;20215;-65
2023/04/25 02:29:32;;;;;;;8.47;6.90;;;;;;;5.82;87.71;100511.97;5096871;28;20659;-66
2023/04/25 02:31:59;;;;;;;7.03;6.37;;;;;;;5.79;88.15;100514.81;5115417;28;20204;-66
2023/04/25 02:34:25;;;;;;;7.00;6.57;;;;;;;5.83;87.94;100514.53;5096562;28;20189;-66
2023/04/25 02:36:52;;;;;;;9.13;6.57;;;;;;;5.81;88.18;100516.44;5114717;28;20268;-66
2023/04/25 02:39:18;;;;;;;7.77;7.07;;;;;;;5.76;88.44;100521.13;5096497;28;20608;-66
2023/04/25 02:41:45;;;;;;;11.10;7.23;;;;;;;5.81;88.27;100520.88;5096477;28;20623;-66
2023/04/25 02:44:11;;;;;;;8.47;7.60;;;;;;;5.77;88.56;100522.88;5114663;28;20205;-66
2023/04/25 02:46:38;;;;;;;20.27;7.50;;;;;;;5.73;88.62;100516.84;5114558;28;20608;-66
2023/04/25 02:49:06;;;;;;;9.93;7.10;;;;;;;5.74;88.69;100513.25;5114870;28;20189;-66
2023/04/25 02:51:33;;;;;;;15.53;7.33;;;;;;;5.71;89.19;100515.22;5114640;28;20197;-66
2023/04/25 02:54:00;;;;;;;12.20;6.57;;;;;;;5.71;89.34;100517.88;5096200;28;20185;-66
2023/04/25 02:56:26;;;;;;;11.70;7.47;;;;;;;5.73;89.17;100513.34;5096294;28;20217;-66
2023/04/25 02:58:53;;;;;;;9.40;7.80;;;;;;;5.72;89.17;100522.25;5096123;28;20188;-66
2023/04/25 03:01:20;;;;;;;11.53;6.93;;;;;;;5.76;89.08;100516.69;5096590;28;20192;-66
2023/04/25 03:03:46;;;;;;;8.40;7.67;;;;;;;5.74;89.20;100518.56;5096013;28;20193;-66
2023/04/25 03:06:14;;;;;;;9.83;7.13;;;;;;;5.69;89.34;100517.97;5096201;28;20217;-66
2023/04/25 03:08:41;;;;;;;10.23;8.27;;;;;;;5.72;89.36;100517.81;5095971;28;20556;-65
2023/04/25 03:11:08;;;;;;;13.60;7.97;;;;;;;5.70;89.44;100522.34;5095958;28;20224;-65
2023/04/25 03:13:35;;;;;;;10.33;7.77;;;;;;;5.70;89.69;100524.16;5095876;28;20730;-65
2023/04/25 03:16:01;;;;;;;16.13;8.23;;;;;;;5.73;89.39;100518.66;5096254;28;20224;-66
2023/04/25 03:18:28;;;;;;;11.23;8.77;;;;;;;5.63;89.69;100531.59;5095914;28;20202;-65
2023/04/25 03:20:55;;;;;;;8.70;7.80;;;;;;;5.63;89.59;100528.94;5095909;28;20551;-65
2023/04/25 03:23:21;;;;;;;14.03;8.47;;;;;;;5.64;89.90;100524.47;5114485;28;20211;-66
2023/04/25 03:25:48;;;;;;;15.47;8.10;;;;;;;5.62;89.76;100521.88;5095629;28;20231;-66
2023/04/25 03:28:15;;;;;;;14.80;8.80;;;;;;;5.63;89.87;100528.94;5095883;28;20231;-66
2023/04/25 03:30:41;;;;;;;21.97;9.90;;;;;;;5.53;90.24;100531.25;5096093;28;20722;-66
2023/04/25 03:33:08;;;;;;;18.00;8.03;;;;;;;5.58;90.22;100535.41;5095810;28;20197;-65
2023/04/25 03:35:35;;;;;;;12.97;7.97;;;;;;;5.57;90.27;100537.22;5095661;28;20221;-66
2023/04/25 03:38:02;;;;;;;11.33;8.73;;;;;;;5.59;90.30;100534.50;5095469;28;20636;-66
2023/04/25 03:40:33;;;;;;;17.20;7.90;;;;;;;5.63;90.28;100534.25;5095560;28;20182;-66
2023/04/25 03:43:29;;;;;;;14.03;8.17;;;;;;;5.66;90.10;100542.03;5091494;28;20277;-66
2023/04/25 03:46:03;;;;;;;23.63;9.47;;;;;;;5.60;89.32;100546.81;5095456;28;20213;-65
2023/04/25 03:48:29;;;;;;;16.37;8.87;;;;;;;5.60;89.24;100555.66;5095016;28;20189;-65
2023/04/25 03:50:57;;;;;;;8.43;6.47;;;;;;;5.52;86.70;100560.53;5095464;28;20608;-66
2023/04/25 03:53:25;;;;;;;12.00;6.47;;;;;;;5.46;84.34;100561.72;5095351;28;20215;-66
2023/04/25 03:56:10;;;;;;;4.30;4.10;;;;;;;5.33;82.73;100569.47;5113728;28;20310;-66
2023/04/25 03:58:38;;;;;;;8.80;4.47;;;;;;;5.32;83.25;100564.25;5095397;28;20208;-66
2023/04/25 04:01:07;;;;;;;7.37;4.97;;;;;;;5.26;83.16;100569.88;5095354;28;20216;-66
2023/04/25 04:03:36;;;;;;;5.67;5.27;;;;;;;5.19;83.46;100561.34;5096469;28;20185;-66
2023/04/25 04:06:05;;;;;;;4.93;4.67;;;;;;;5.15;83.70;100564.25;5095471;28;20295;-66
2023/04/25 04:08:35;;;;;;;6.43;5.00;;;;;;;5.08;83.90;100561.94;5096186;28;20599;-66
2023/04/25 04:11:02;;;;;;;13.20;5.30;;;;;;;5.07;83.62;100556.69;5095179;28;20571;-66
2023/04/25 04:13:29;;;;;;;6.17;5.00;;;;;;;5.02;83.59;100564.88;5095139;28;20690;-66
2023/04/25 04:15:57;;;;;;;5.13;4.50;;;;;;;4.93;83.87;100562.69;5095065;28;20223;-66
2023/04/25 04:18:23;;;;;;;8.43;4.80;;;;;;;4.88;84.49;100556.78;5113416;28;20184;-66
2023/04/25 04:20:50;;;;;;;5.53;5.00;;;;;;;4.91;85.18;100564.59;5095238;28;20238;-66
2023/04/25 04:23:16;;;;;;;10.33;4.43;;;;;;;4.85;85.45;100571.06;5095297;28;20230;-66
2023/04/25 04:25:43;;;;;;;15.80;6.07;;;;;;;4.83;85.34;100572.94;5095052;28;20615;-66
2023/04/25 04:28:21;;;;;;;4.50;4.30;;;;;;;4.85;85.42;100576.38;5095007;28;20193;-66
2023/04/25 04:30:55;;;;;;;15.47;4.73;;;;;;;4.76;85.67;100576.81;5095389;28;20735;-66
2023/04/25 04:33:23;;;;;;;10.03;4.90;;;;;;;4.82;85.92;100588.94;5094948;28;20193;-66
2023/04/25 04:35:55;;;;;;;6.03;5.43;;;;;;;4.72;86.91;100582.34;5094925;28;20208;-66
2023/04/25 04:38:21;;;;;;;6.07;4.90;;;;;;;4.79;87.04;100586.41;5094978;28;20262;-66
2023/04/25 04:40:50;;;;;;;4.90;4.63;;;;;;;4.84;86.87;100581.78;5095169;28;20731;-66
2023/04/25 04:43:47;;;;;;;6.27;5.20;;;;;;;4.84;86.61;100587.06;5095015;28;20193;-66
2023/04/25 04:46:28;;;;;;;9.03;5.57;;;;;;;4.83;86.95;100578.22;5094763;28;20304;-66
2023/04/25 04:49:12;;;;;;;18.90;6.33;;;;;;;4.86;87.00;100582.53;5095104;28;20534;-66
2023/04/25 04:51:54;;;;;;;11.33;6.00;;;;;;;4.88;86.89;100584.19;5095114;28;20193;-66
2023/04/25 04:54:36;;;;;;;15.83;8.00;;;;;;;4.89;86.95;100588.56;5095657;28;20212;-67
2023/04/25 04:57:26;;;;;;;11.77;8.30;;;;;;;4.94;87.01;100598.94;5113593;28;20501;-66
2023/04/25 05:00:04;;;;;;;17.37;9.60;;;;;;;4.96;87.09;100602.38;5096066;28;20188;-66
2023/04/25 05:02:48;;;;;;;16.30;9.93;;;;;;;5.01;87.81;100599.50;5099219;28;20208;-66
2023/04/25 05:05:34;;;;;;;18.43;10.50;;;;;;;5.00;88.03;100603.06;5117308;28;20211;-66
2023/04/25 05:08:19;;;;;;;15.50;11.93;;;;;;;5.07;88.05;100610.63;5117312;28;20184;-66
2023/04/25 05:11:03;;;;;;;22.37;11.00;;;;;;;5.06;88.66;100600.97;5116885;28;20180;-66
2023/04/25 05:13:39;;;;;;;16.80;10.90;;;;;;;5.06;89.22;100610.72;5098349;28;20185;-66
2023/04/25 05:16:18;;;;;;;22.17;11.43;;;;;;;5.11;89.55;100617.50;5116508;28;20292;-66
2023/04/25 05:18:54;;;;;;;16.63;10.90;;;;;;;5.16;90.32;100608.47;5098101;28;20185;-66
2023/04/25 05:21:42;;;;;;;24.23;10.87;;;;;;;5.21;90.40;100614.38;5116579;28;20200;-66
2023/04/25 05:24:22;;;;;;;11.00;9.63;;;;;;;5.25;90.67;100622.13;5098223;28;20693;-66
2023/04/25 05:27:07;;;;;;;19.30;10.50;;;;;;;5.31;90.31;100628.91;5116624;28;20284;-66
2023/04/25 05:30:04;;;;;;;22.03;11.43;;;;;;;5.34;90.72;100634.06;5108853;28;20245;-65
2023/04/25 05:32:54;;;;;;;28.30;10.83;;;;;;;5.42;90.64;100641.63;5097699;28;20271;-65
2023/04/25 05:35:21;;;;;;;17.47;11.67;;;;;;;5.43;90.64;100638.88;5097564;28;20243;-66
2023/04/25 05:37:49;;;;;;;17.60;9.83;;;;;;;5.46;90.70;100640.50;5097737;28;20196;-66
2023/04/25 05:40:16;;;;;;;41.07;14.83;;;;;;;5.39;90.36;100644.44;5097337;28;20216;-66
2023/04/25 05:43:03;;;;;;;34.33;13.50;;;;;;;5.43;90.29;100633.56;5097584;28;20272;-66
2023/04/25 05:45:42;;;;;;;22.43;11.57;;;;;;;5.52;90.40;100651.69;5116002;28;20193;-66
2023/04/25 05:48:29;;;;;;;33.53;11.03;;;;;;;5.53;90.00;100657.84;5097457;28;20195;-66
2023/04/25 05:51:16;;;;;;;33.07;13.40;;;;;;;5.51;89.97;100657.94;5115713;28;20166;-66
2023/04/25 05:53:42;;;;;;;16.97;12.23;;;;;;;5.50;89.34;100655.38;5116250;28;20282;-66
2023/04/25 05:56:09;;;;;;;41.57;12.23;;;;;;;5.49;89.04;100661.63;5097276;28;20235;-66
2023/04/25 05:58:35;;;;;;;35.37;12.40;;;;;;;5.58;88.97;100668.25;5097346;28;20667;-67
2023/04/25 06:01:02;;;;;;;25.93;11.93;;;;;;;5.62;89.21;100665.34;5097687;28;20596;-66
2023/04/25 06:03:29;;;;;;;28.80;13.67;;;;;;;5.64;88.95;100674.09;5097175;28;20192;-66
2023/04/25 06:05:57;;;;;;;20.73;12.13;;;;;;;5.56;88.65;100680.78;5096958;28;20233;-66
2023/04/25 06:08:28;;;;;;;39.97;13.43;;;;;;;5.60;88.68;100677.84;5097297;28;20196;-66
2023/04/25 06:10:54;;;;;;;24.43;13.30;;;;;;;5.64;88.92;100682.06;5096956;28;20185;-66
2023/04/25 06:13:22;;;;;;;23.87;13.07;;;;;;;5.73;88.91;100686.91;5097809;28;20185;-67
2023/04/25 06:15:49;;;;;;;35.60;10.70;;;;;;;5.73;87.64;100686.06;5096824;28;20209;-66
2023/04/25 06:18:16;;;;;;;25.47;11.23;;;;;;;5.72;87.88;100684.31;5096934;28;20197;-66
2023/04/25 06:20:42;;;;;;;21.57;10.30;;;;;;;5.72;87.56;100695.84;5115331;28;20219;-66
2023/04/25 06:23:09;;;;;;;21.53;11.60;;;;;;;5.76;87.28;100688.53;5096796;28;20198;-66
2023/04/25 06:25:50;;;;;;;21.73;11.10;;;;;;;5.82;87.27;100692.66;5097560;28;20566;-66
2023/04/25 06:28:16;;;;;;;22.37;8.53;;;;;;;5.83;86.51;100691.75;5097133;28;20201;-66
2023/04/25 06:30:43;;;;;;;26.90;11.03;;;;;;;5.87;86.98;100702.13;5114898;28;20185;-66
2023/04/25 06:33:13;;;;;;;22.30;11.50;;;;;;;5.86;86.65;100694.22;5096597;28;20196;-66
2023/04/25 06:35:40;;;;;;;14.93;8.50;;;;;;;5.76;86.05;100693.84;5096398;28;20208;-66
2023/04/25 06:38:10;;;;;;;13.57;8.50;;;;;;;5.77;86.86;100695.59;5096372;28;20185;-66
2023/04/25 06:40:38;;;;;;;11.97;7.63;;;;;;;5.75;86.13;100702.78;5096418;28;20284;-67
2023/04/25 06:43:05;;;;;;;8.30;7.50;;;;;;;5.68;84.93;100704.88;5096975;28;20244;-67
2023/04/25 06:45:51;;;;;;;19.50;7.00;;;;;;;5.71;85.81;100709.19;5096424;28;20280;-66
2023/04/25 06:48:19;;;;;;;12.03;7.47;;;;;;;5.73;85.05;100713.47;5096314;28;20186;-66
2023/04/25 06:50:46;;;;;;;9.87;5.60;;;;;;;5.74;83.98;100706.34;5096308;28;20447;-66
2023/04/25 06:53:13;;;;;;;9.77;5.30;;;;;;;5.73;83.07;100710.81;5096231;28;20226;-66
2023/04/25 06:55:42;;;;;;;12.33;5.80;;;;;;;5.68;81.86;100714.66;5096024;28;20236;-66
2023/04/25 06:58:15;;;;;;;6.60;4.83;;;;;;;5.77;82.12;100706.22;5096160;28;20238;-66
2023/04/25 07:01:00;;;;;;;12.37;5.33;;;;;;;5.83;80.85;100713.00;5114775;28;20196;-66
2023/04/25 07:03:27;;;;;;;8.17;4.70;;;;;;;5.87;79.64;100714.56;5096017;28;20194;-66
2023/04/25 07:05:58;;;;;;;8.37;4.33;;;;;;;5.88;78.69;100718.94;5096249;28;20667;-66
2023/04/25 07:08:25;;;;;;;5.77;4.13;;;;;;;5.89;78.23;100717.97;5114459;28;20208;-67
2023/04/25 07:10:51;;;;;;;5.67;5.23;;;;;;;5.99;79.22;100721.06;5095933;28;20211;-66
2023/04/25 07:13:17;;;;;;;4.93;4.53;;;;;;;5.97;78.98;100722.00;5114132;28;20181;-66
2023/04/25 07:15:44;;;;;;;10.97;5.27;;;;;;;6.11;79.26;100723.94;5095730;28;20641;-66
2023/04/25 07:18:11;;;;;;;6.60;3.90;;;;;;;6.19;77.95;100723.50;5095821;28;20572;-66
2023/04/25 07:20:38;;;;;;;4.47;4.10;;;;;;;6.22;77.96;100723.34;5114963;28;20184;-66
2023/04/25 07:23:05;;;;;;;6.27;4.23;;;;;;;6.22;77.55;100738.44;5095083;28;20217;-66
2023/04/25 07:25:32;;;;;;;7.30;3.80;;;;;;;6.25;76.77;100733.84;5095521;28;20736;-66
2023/04/25 07:28:00;;;;;;;6.03;4.20;;;;;;;6.25;76.70;100736.50;5095648;28;20601;-66
2023/04/25 07:30:26;;;;;;;8.17;4.83;;;;;;;6.15;76.55;100743.22;5095691;28;20611;-67
2023/04/25 07:32:53;;;;;;;4.97;4.67;;;;;;;6.18;76.67;100743.09;5095682;28;20238;-66
2023/04/25 07:35:20;;;;;;;4.40;3.90;;;;;;;6.22;76.01;100757.06;5096003;28;20213;-66
2023/04/25 07:37:47;;;;;;;14.27;3.93;;;;;;;6.32;77.26;100748.53;5095700;28;20221;-66
2023/04/25 07:40:17;;;;;;;8.47;4.77;;;;;;;6.43;76.86;100747.91;5095787;28;20189;-66
2023/04/25 07:42:47;;;;;;;10.30;4.30;;;;;;;6.54;76.95;100750.00;5096425;28;20189;-66
2023/04/25 07:45:18;;;;;;;7.23;4.30;;;;;;;6.57;77.62;100756.00;5095502;28;20246;-66
2023/04/25 07:47:44;;;;;;;3.60;3.40;;;;;;;6.57;76.13;100765.81;5095519;28;20195;-66
2023/04/25 07:50:11;;;;;;;8.37;4.10;;;;;;;6.66;77.77;100764.44;5095293;28;20188;-66
2023/04/25 07:52:38;;;;;;;17.47;5.50;;;;;;;6.71;76.98;100768.56;5095318;28;20224;-66
2023/04/25 07:55:22;;;;;;;4.50;4.10;;;;;;;6.88;77.62;100769.44;5095921;28;20217;-66
2023/04/25 07:58:00;;;;;;;4.60;4.40;;;;;;;7.01;75.41;100771.31;5096245;28;20173;-66
2023/04/25 08:00:28;;;;;;;7.37;3.83;;;;;;;7.12;73.85;100770.72;5095161;28;20201;-66
2023/04/25 08:03:14;;;;;;;5.40;4.10;;;;;;;7.21;74.51;100772.84;5095206;28;20189;-66
2023/04/25 08:05:41;;;;;;;15.20;4.47;;;;;;;7.23;74.51;100775.41;5095178;28;20209;-66
2023/04/25 08:08:08;;;;;;;3.33;3.13;;;;;;;7.16;73.02;100777.59;5095472;28;20196;-66
2023/04/25 08:10:35;;;;;;;6.43;4.43;;;;;;;7.17;73.07;100783.78;5095315;28;20243;-66
2023/04/25 08:13:02;;;;;;;7.80;3.50;;;;;;;7.11;71.49;100795.63;5095181;28;20216;-66
2023/04/25 08:15:28;;;;;;;3.47;3.20;;;;;;;7.09;72.76;100800.19;5095144;28;20220;-66
2023/04/25 08:17:55;;;;;;;7.97;4.43;;;;;;;7.05;73.04;100803.97;5095321;28;20254;-66
2023/04/25 08:20:22;;;;;;;8.87;3.47;;;;;;;7.11;73.27;100810.72;5095184;28;20213;-66
2023/04/25 08:22:50;;;;;;;8.93;4.43;;;;;;;7.16;73.29;100806.88;5095902;28;20197;-66
2023/04/25 08:25:27;;;;;;;3.83;3.63;;;;;;;7.24;75.13;100806.44;5095245;28;20266;-66
2023/04/25 08:27:54;;;;;;;6.07;4.43;;;;;;;7.32;73.47;100811.34;5095119;28;20228;-66
2023/04/25 08:30:21;;;;;;;3.97;3.87;;;;;;;7.26;73.62;100817.88;5095105;28;20272;-66
2023/04/25 08:32:49;;;;;;;9.93;3.73;;;;;;;7.30;74.53;100813.22;5095100;28;20197;-66
2023/04/25 08:35:39;;;;;;;11.77;4.87;;;;;;;7.32;72.29;100827.31;5116994;28;20290;-66
2023/04/25 08:38:06;;;;;;;12.13;4.17;;;;;;;7.49;73.09;100823.69;5099302;28;20216;-66
2023/04/25 08:40:37;;;;;;;7.80;4.30;;;;;;;7.72;72.57;100814.38;5098854;28;20664;-67
2023/04/25 08:43:11;;;;;;;12.33;4.40;;;;;;;7.99;69.94;100820.72;5098732;28;20329;-66
2023/04/25 08:45:42;;;;;;;4.93;3.40;;;;;;;8.13;68.52;100814.56;5117046;28;20650;-66
2023/04/25 08:48:15;;;;;;;14.00;4.17;;;;;;;8.25;69.07;100824.50;5098988;28;20203;-66
2023/04/25 08:50:53;;;;;;;9.07;3.90;;;;;;;8.49;70.41;100830.19;5116912;28;20189;-66
2023/04/25 08:53:27;;;;;;;16.20;4.27;;;;;;;8.65;68.83;100835.44;5098526;28;20537;-67
2023/04/25 08:55:58;;;;;;;4.87;3.07;;;;;;;8.45;67.60;100838.47;5099022;28;20213;-66
2023/04/25 08:58:25;;;;;;;5.60;3.50;;;;;;;8.43;68.58;100837.72;5098490;28;20232;-66
2023/04/25 09:00:52;;;;;;;4.63;3.60;;;;;;;8.34;67.39;100846.25;5098390;28;20184;-66
2023/04/25 09:03:21;;;;;;;3.03;2.83;;;;;;;8.22;66.61;100838.03;5098353;28;20214;-66
2023/04/25 09:05:50;;;;;;;3.63;3.33;;;;;;;8.25;66.50;100845.00;5098500;28;20212;-66
2023/04/25 09:08:17;;;;;;;6.53;3.30;;;;;;;8.21;66.39;100846.13;5116593;28;20211;-66
2023/04/25 09:10:43;;;;;;;4.43;3.40;;;;;;;8.38;64.74;100853.97;5098256;28;20337;-67
2023/04/25 09:13:12;;;;;;;12.10;3.57;;;;;;;8.56;65.94;100852.00;5098410;28;20193;-66
2023/04/25 09:16:08;;;;;;;4.33;3.90;;;;;;;8.79;65.21;100863.06;5084060;28;20261;-66
2023/04/25 09:18:46;;;;;;;6.30;3.37;;;;;;;8.86;66.55;100867.06;5098613;28;20189;-66
2023/04/25 09:21:15;;;;;;;6.03;3.60;;;;;;;8.90;66.93;100869.47;5097960;28;20613;-67
2023/04/25 09:23:47;;;;;;;6.57;2.93;;;;;;;8.87;66.10;100868.81;5097998;28;20193;-66
2023/04/25 09:26:16;;;;;;;4.97;3.40;;;;;;;8.63;64.47;100873.88;5097825;28;20219;-66
2023/04/25 09:28:45;;;;;;;7.27;3.57;;;;;;;8.52;66.46;100874.50;5098034;28;20200;-66
2023/04/25 09:31:24;;;;;;;5.53;3.37;;;;;;;8.36;63.28;100877.22;5098139;28;20213;-66
2023/04/25 09:34:00;;;;;;;2.87;2.77;;;;;;;8.47;62.12;100880.13;5097803;28;20234;-66
2023/04/25 09:36:34;;;;;;;4.00;2.80;;;;;;;8.59;60.84;100875.84;5097805;28;20247;-66
2023/04/25 09:39:15;;;;;;;8.10;3.50;;;;;;;8.80;62.21;100878.16;5098486;28;20189;-66
2023/04/25 09:41:46;;;;;;;3.23;2.90;;;;;;;8.63;61.55;100882.72;5098477;28;20178;-66
2023/04/25 09:44:13;;;;;;;5.43;2.60;;;;;;;8.47;60.78;100882.78;5097561;28;20307;-66
2023/04/25 09:46:41;;;;;;;3.20;2.90;;;;;;;8.50;60.02;100885.28;5096857;28;20205;-66
2023/04/25 09:49:16;;;;;;;4.53;2.47;;;;;;;8.80;61.27;100888.84;5097559;28;20185;-66
2023/04/25 09:52:00;;;;;;;6.73;3.17;;;;;;;8.96;62.24;100889.59;5098041;28;20208;-67
2023/04/25 09:54:32;;;;;;;4.20;3.07;;;;;;;9.21;59.98;100893.41;5097651;28;20217;-68
2023/04/25 09:57:20;;;;;;;5.00;3.13;;;;;;;9.37;57.79;100884.31;5098039;28;20570;-66
2023/04/25 09:59:49;;;;;;;5.47;2.07;;;;;;;9.42;57.01;100889.34;5097289;28;20181;-66
2023/04/25 10:02:21;;;;;;;3.00;2.70;;;;;;;9.20;57.15;100891.69;5097503;28;20659;-66
2023/04/25 10:04:54;;;;;;;4.70;2.83;;;;;;;9.16;57.55;100893.69;5097748;28;20188;-66
2023/04/25 10:07:34;;;;;;;4.50;4.20;;;;;;;8.94;55.72;100904.88;5097188;28;20659;-66
2023/04/25 10:10:03;;;;;;;3.70;2.57;;;;;;;8.88;54.68;100911.47;5097109;28;20189;-66
2023/04/25 10:12:33;;;;;;;3.33;2.37;;;;;;;8.76;56.58;100906.00;5115221;28;20185;-66
2023/04/25 10:15:02;;;;;;;3.23;1.97;;;;;;;8.59;57.25;100915.88;5115518;28;20212;-66
2023/04/25 10:17:29;;;;;;;6.87;2.60;;;;;;;8.40;57.30;100912.63;5115448;28;20253;-65
2023/04/25 10:19:56;;;;;;;4.03;3.20;;;;;;;8.38;61.55;100918.03;5115483;28;20219;-66
2023/04/25 10:22:34;;;;;;;2.87;2.67;;;;;;;8.34;58.38;100920.97;5115332;28;20268;-66
2023/04/25 10:25:03;;;;;;;4.97;3.10;;;;;;;8.35;61.41;100923.53;5115469;28;20212;-66
2023/04/25 10:27:30;;;;;;;4.93;4.40;;;;;;;8.37;60.32;100921.63;5115017;28;20652;-66
2023/04/25 10:30:06;;;;;;;7.80;6.70;;;;;;;8.38;58.13;100928.69;5114909;28;20675;-66
2023/04/25 10:32:33;;;;;;;8.13;3.07;;;;;;;8.23;56.86;100929.59;5114736;28;20647;-66
2023/04/25 10:35:23;;;;;;;3.33;3.20;;;;;;;7.95;58.82;100938.34;5114976;28;20695;-66
2023/04/25 10:38:09;;;;;;;3.80;3.07;;;;;;;7.58;60.61;100945.75;5115327;28;20232;-65
2023/04/25 10:40:36;;;;;;;4.30;3.83;;;;;;;7.48;63.46;100957.88;5114828;28;20201;-66
2023/04/25 10:43:30;;;;;;;6.20;3.37;;;;;;;7.41;67.02;100965.34;5114713;28;20212;-66
2023/04/25 10:46:00;;;;;;;7.43;3.10;;;;;;;7.43;67.77;100961.66;5114794;28;20197;-67
2023/04/25 10:48:30;;;;;;;4.93;2.97;;;;;;;7.44;69.24;100971.34;5114610;28;20193;-66
2023/04/25 10:51:23;;;;;;;5.47;3.73;;;;;;;7.29;69.57;100969.53;5115104;28;20228;-66
2023/04/25 10:53:55;;;;;;;8.33;3.57;;;;;;;7.24;70.30;100966.28;5114455;28;20255;-67
2023/04/25 10:56:27;;;;;;;16.97;11.47;;;;;;;7.13;71.17;100976.63;5114284;28;20216;-66
2023/04/25 10:59:15;;;;;;;5.43;4.03;;;;;;;7.18;71.79;100975.47;5113601;28;20246;-66
2023/04/25 11:01:51;;;;;;;5.70;4.90;;;;;;;7.19;72.22;100976.31;5114332;28;20260;-66
2023/04/25 11:04:23;;;;;;;3.80;3.60;;;;;;;7.25;70.51;100970.63;5114582;28;20183;-66
2023/04/25 11:07:02;;;;;;;4.50;2.50;;;;;;;7.32;70.98;100966.69;5114213;28;20204;-66
2023/04/25 11:09:34;;;;;;;4.00;3.17;;;;;;;7.38;70.79;100966.38;5115113;28;20174;-66
2023/04/25 11:12:01;;;;;;;8.03;2.97;;;;;;;7.33;67.68;100965.78;5114650;28;20192;-66
2023/04/25 11:14:27;;;;;;;8.43;2.60;;;;;;;7.38;67.62;100968.19;5114140;28;20209;-66
2023/04/25 11:16:58;;;;;;;5.87;2.33;;;;;;;7.38;67.24;100963.72;5113875;28;20209;-66
2023/04/25 11:19:27;;;;;;;4.60;2.80;;;;;;;7.58;67.40;100967.94;5114432;28;20173;-66
2023/04/25 11:21:58;;;;;;;6.13;2.90;;;;;;;7.76;67.73;100973.22;5113985;28;20206;-66
2023/04/25 11:24:32;;;;;;;3.70;3.13;;;;;;;7.85;67.16;100976.22;5113953;28;20191;-66
2023/04/25 11:26:59;;;;;;;5.77;2.73;;;;;;;7.83;65.04;100975.44;5113978;28;20197;-66
2023/04/25 11:29:27;;;;;;;4.10;2.83;;;;;;;8.09;68.56;100967.75;5114378;28;20209;-66
2023/04/25 11:31:57;;;;;;;2.80;2.60;;;;;;;8.41;67.13;100973.91;5113244;28;20511;-65
2023/04/25 11:34:25;;;;;;;2.90;2.77;;;;;;;8.54;65.69;100957.16;5114777;28;20540;-67
2023/04/25 11:36:53;;;;;;;2.27;2.27;;;;;;;8.77;60.52;100958.47;5113695;28;20243;-67
2023/04/25 11:39:20;;;;;;;5.03;2.40;;;;;;;8.94;60.63;100959.16;5113886;28;20213;-67
2023/04/25 11:41:47;;;;;;;4.20;2.30;;;;;;;9.21;58.10;100968.22;5113647;28;20193;-67
2023/04/25 11:44:18;;;;;;;1.90;1.90;;;;;;;9.40;54.41;100966.13;5113511;28;20238;-67
2023/04/25 11:46:45;;;;;;;13.70;2.23;;;;;;;9.62;58.62;100960.25;5113945;28;20797;-67